createdAt,value
2023-05-30T00:00:34.553Z,5.20
2023-05-30T00:04:41.120Z,5.20
2023-05-30T00:06:43.606Z,4.68
2023-05-30T00:08:46.219Z,5.13
2023-05-30T00:12:51.183Z,5.80
2023-05-30T00:14:53.347Z,5.40
2023-05-30T00:16:57.742Z,4.97
2023-05-30T00:19:01.596Z,5.15
2023-05-30T00:21:05.056Z,4.70
2023-05-30T00:23:07.383Z,5.20
2023-05-30T00:25:10.797Z,5.30
2023-05-30T00:27:14.801Z,5.50
2023-05-30T00:29:17.655Z,5.25
2023-05-30T00:31:19.950Z,5.15
2023-05-30T00:33:22.280Z,5.60
2023-05-30T00:35:24.436Z,5.90
2023-05-30T00:37:26.952Z,6.57
2023-05-30T00:39:29.749Z,5.50
2023-05-30T00:43:34.132Z,5.60
2023-05-30T00:45:36.719Z,5.80
2023-05-30T00:47:39.691Z,5.13
2023-05-30T00:49:42.225Z,5.75
2023-05-30T00:51:44.468Z,5.97
2023-05-30T00:53:46.789Z,5.75
2023-05-30T00:55:49.756Z,6.13
2023-05-30T00:57:52.252Z,5.25
2023-05-30T00:59:54.466Z,5.93
2023-05-30T01:01:57.306Z,5.82
2023-05-30T01:04:00.722Z,5.90
2023-05-30T01:06:04.600Z,5.32
2023-05-30T01:08:07.288Z,5.50
2023-05-30T01:10:09.955Z,6.05
2023-05-30T01:12:15.805Z,5.35
2023-05-30T01:14:26.900Z,5.97
2023-05-30T01:16:30.691Z,5.75
2023-05-30T01:18:38.537Z,5.28
2023-05-30T01:20:45.975Z,5.78
2023-05-30T01:23:07.128Z,5.47
2023-05-30T01:25:09.303Z,5.65
2023-05-30T01:27:29.127Z,5.18
2023-05-30T01:29:33.032Z,6.10
2023-05-30T01:31:35.405Z,5.78
2023-05-30T01:33:38.172Z,5.60
2023-05-30T01:37:42.692Z,6.07
2023-05-30T01:39:44.934Z,5.82
2023-05-30T01:41:54.467Z,6.10
2023-05-30T01:44:09.593Z,6.18
2023-05-30T01:46:17.892Z,5.93
2023-05-30T01:48:23.749Z,5.10
2023-05-30T01:50:30.850Z,6.00
2023-05-30T01:52:35.485Z,5.78
2023-05-30T01:54:37.716Z,5.47
2023-05-30T01:56:40.447Z,5.72
2023-05-30T02:00:45.049Z,5.50
2023-05-30T02:02:47.413Z,5.72
2023-05-30T02:04:49.622Z,5.82
2023-05-30T02:06:51.785Z,6.13
2023-05-30T02:08:53.998Z,5.72
2023-05-30T02:10:56.812Z,6.45
2023-05-30T02:12:59.142Z,6.22
2023-05-30T02:15:01.304Z,5.88
2023-05-30T02:17:03.766Z,6.43
2023-05-30T02:19:06.159Z,5.75
2023-05-30T02:21:09.225Z,5.93
2023-05-30T02:23:11.580Z,6.13
2023-05-30T02:25:13.748Z,5.85
2023-05-30T02:27:15.954Z,5.80
2023-05-30T02:29:18.151Z,6.18
2023-05-30T02:31:20.416Z,6.10
2023-05-30T02:33:22.618Z,5.80
2023-05-30T02:35:24.849Z,6.18
2023-05-30T02:37:28.905Z,6.05
2023-05-30T02:39:31.303Z,5.90
2023-05-30T02:41:34.199Z,6.25
2023-05-30T02:43:37.518Z,6.60
2023-05-30T02:45:39.781Z,6.20
2023-05-30T02:47:42.020Z,6.70
2023-05-30T02:49:44.272Z,5.95
2023-05-30T02:51:46.538Z,6.05
2023-05-30T02:53:48.741Z,5.93
2023-05-30T02:55:51.451Z,6.45
2023-05-30T02:57:53.637Z,6.20
2023-05-30T02:59:55.911Z,6.40
2023-05-30T03:01:58.164Z,6.95
2023-05-30T03:04:00.440Z,6.47
2023-05-30T03:06:04.431Z,6.20
2023-05-30T03:08:17.957Z,6.50
2023-05-30T03:10:27.430Z,6.53
2023-05-30T03:12:29.661Z,6.15
2023-05-30T03:14:32.056Z,6.43
2023-05-30T03:16:34.343Z,6.03
2023-05-30T03:18:36.686Z,6.03
2023-05-30T03:20:38.959Z,6.20
2023-05-30T03:22:42.970Z,6.78
2023-05-30T03:24:45.119Z,6.75
2023-05-30T03:26:47.524Z,6.22
2023-05-30T03:28:49.722Z,6.80
2023-05-30T03:30:51.911Z,6.30
2023-05-30T03:32:54.557Z,6.10
2023-05-30T03:34:56.839Z,6.68
2023-05-30T03:36:59.645Z,6.95
2023-05-30T03:41:03.949Z,5.80
2023-05-30T03:43:06.201Z,6.28
2023-05-30T03:45:08.526Z,6.40
2023-05-30T03:47:10.807Z,6.25
2023-05-30T03:49:13.027Z,6.18
2023-05-30T03:51:15.578Z,6.20
2023-05-30T03:53:17.801Z,6.20
2023-05-30T03:55:20.040Z,6.07
2023-05-30T03:57:22.232Z,6.53
2023-05-30T03:59:24.522Z,6.10
2023-05-30T04:01:26.692Z,6.20
2023-05-30T04:03:30.848Z,6.00
2023-05-30T04:05:33.050Z,6.60
2023-05-30T04:07:36.475Z,6.50
2023-05-30T04:09:38.768Z,6.18
2023-05-30T04:11:40.980Z,6.00
2023-05-30T04:13:43.568Z,5.65
2023-05-30T04:15:45.839Z,5.85
2023-05-30T04:17:48.103Z,5.45
2023-05-30T04:19:50.397Z,5.90
2023-05-30T04:21:52.606Z,5.80
2023-05-30T04:23:54.942Z,5.25
2023-05-30T04:25:58.997Z,5.82
2023-05-30T04:28:01.229Z,6.03
2023-05-30T04:30:04.307Z,5.53
2023-05-30T04:32:06.818Z,6.00
2023-05-30T04:34:09.102Z,6.05
2023-05-30T04:36:11.320Z,6.00
2023-05-30T04:38:17.433Z,5.93
2023-05-30T04:40:19.748Z,6.03
2023-05-30T04:42:21.930Z,6.18
2023-05-30T04:44:24.293Z,6.10
2023-05-30T04:46:28.918Z,5.55
2023-05-30T04:48:31.911Z,6.10
2023-05-30T04:50:34.111Z,6.10
2023-05-30T04:52:36.369Z,6.50
2023-05-30T04:54:38.581Z,5.82
2023-05-30T04:56:41.331Z,6.38
2023-05-30T04:58:46.228Z,6.20
2023-05-30T05:00:49.641Z,6.10
2023-05-30T05:02:52.704Z,5.65
2023-05-30T05:04:55.112Z,5.80
2023-05-30T05:06:57.445Z,6.32
2023-05-30T05:09:00.791Z,5.78
2023-05-30T05:11:04.506Z,5.47
2023-05-30T05:13:06.749Z,5.63
2023-05-30T05:15:09.197Z,5.40
2023-05-30T05:17:11.356Z,5.45
2023-05-30T05:19:13.554Z,5.80
2023-05-30T05:21:15.738Z,5.75
2023-05-30T05:23:18.013Z,4.65
2023-05-30T05:25:20.264Z,5.38
2023-05-30T05:27:22.436Z,6.05
2023-05-30T05:29:24.615Z,6.15
2023-05-30T05:31:27.106Z,5.53
2023-05-30T05:33:29.381Z,5.43
2023-05-30T05:35:31.542Z,5.93
2023-05-30T05:37:33.699Z,6.20
2023-05-30T05:39:36.313Z,5.30
2023-05-30T05:41:38.555Z,5.10
2023-05-30T05:43:40.815Z,6.18
2023-05-30T05:45:43.126Z,5.88
2023-05-30T05:47:45.398Z,5.70
2023-05-30T05:49:47.694Z,5.10
2023-05-30T05:51:49.865Z,5.65
2023-05-30T05:53:52.109Z,4.95
2023-05-30T05:55:54.600Z,5.68
2023-05-30T05:57:57.661Z,5.10
2023-05-30T06:00:00.329Z,5.28
2023-05-30T06:02:02.611Z,5.25
2023-05-30T06:04:12.147Z,4.80
2023-05-30T06:06:14.576Z,5.53
2023-05-30T06:08:16.823Z,5.22
2023-05-30T06:10:19.152Z,4.78
2023-05-30T06:12:21.581Z,4.60
2023-05-30T06:14:23.782Z,4.50
2023-05-30T06:16:26.240Z,4.40
2023-05-30T06:18:28.540Z,5.00
2023-05-30T06:20:30.755Z,4.55
2023-05-30T06:22:33.075Z,4.80
2023-05-30T06:24:35.665Z,4.07
2023-05-30T06:26:37.817Z,4.57
2023-05-30T06:28:40.099Z,4.28
2023-05-30T06:30:42.323Z,4.38
2023-05-30T06:32:44.570Z,4.20
2023-05-30T06:34:47.115Z,4.15
2023-05-30T06:36:49.404Z,4.18
2023-05-30T06:38:52.440Z,3.90
2023-05-30T06:40:54.813Z,3.65
2023-05-30T06:42:57.676Z,4.03
2023-05-30T06:47:01.946Z,4.15
2023-05-30T06:49:04.379Z,4.68
2023-05-30T06:51:07.775Z,4.53
2023-05-30T06:53:10.024Z,3.85
2023-05-30T06:55:12.225Z,3.88
2023-05-30T06:57:14.506Z,4.28
2023-05-30T06:59:16.752Z,3.83
2023-05-30T07:01:18.970Z,3.40
2023-05-30T07:03:21.313Z,3.15
2023-05-30T07:05:23.512Z,3.15
2023-05-30T07:07:25.768Z,3.63
2023-05-30T07:09:28.002Z,3.83
2023-05-30T07:11:30.245Z,3.40
2023-05-30T07:13:32.443Z,3.20
2023-05-30T07:15:34.715Z,3.80
2023-05-30T07:17:36.969Z,4.60
2023-05-30T07:19:39.254Z,3.65
2023-05-30T07:21:41.958Z,3.50
2023-05-30T07:25:46.262Z,3.53
2023-05-30T07:27:48.456Z,4.00
2023-05-30T07:29:50.896Z,3.25
2023-05-30T07:31:53.092Z,4.07
2023-05-30T07:33:55.325Z,3.53
2023-05-30T07:35:57.525Z,3.72
2023-05-30T07:37:59.708Z,3.65
2023-05-30T07:40:05.134Z,3.72
2023-05-30T07:42:08.400Z,3.72
2023-05-30T07:44:10.924Z,3.42
2023-05-30T07:46:13.162Z,3.83
2023-05-30T07:48:15.480Z,4.00
2023-05-30T07:50:17.690Z,3.58
2023-05-30T07:52:19.869Z,3.45
2023-05-30T07:54:22.083Z,3.85
2023-05-30T07:56:24.470Z,3.80
2023-05-30T07:58:26.698Z,3.72
2023-05-30T08:00:28.880Z,3.38
2023-05-30T08:02:31.109Z,3.10
2023-05-30T08:04:33.414Z,4.97
2023-05-30T08:06:37.533Z,3.53
2023-05-30T08:08:39.807Z,3.67
2023-05-30T08:10:42.031Z,3.25
2023-05-30T08:12:44.300Z,3.67
2023-05-30T08:14:46.727Z,3.72
2023-05-30T08:16:49.066Z,3.78
2023-05-30T08:18:51.328Z,3.80
2023-05-30T08:20:55.424Z,3.63
2023-05-30T08:22:59.613Z,3.60
2023-05-30T08:25:03.565Z,3.47
2023-05-30T08:27:07.424Z,3.85
2023-05-30T08:29:09.890Z,3.50
2023-05-30T08:31:12.074Z,3.58
2023-05-30T08:33:14.913Z,4.00
2023-05-30T08:37:20.279Z,3.95
2023-05-30T08:39:23.257Z,3.63
2023-05-30T08:41:26.837Z,3.63
2023-05-30T08:43:29.111Z,3.47
2023-05-30T08:45:31.550Z,3.50
2023-05-30T08:47:34.741Z,3.03
2023-05-30T08:49:41.412Z,3.65
2023-05-30T08:51:44.565Z,3.58
2023-05-30T08:53:56.603Z,3.72
2023-05-30T08:56:08.900Z,3.40
2023-05-30T08:58:11.123Z,3.22
2023-05-30T09:00:15.152Z,3.40
2023-05-30T09:02:17.611Z,3.55
2023-05-30T09:04:20.816Z,3.50
2023-05-30T09:06:23.117Z,3.78
2023-05-30T09:08:26.619Z,3.80
2023-05-30T09:10:30.134Z,3.25
2023-05-30T09:12:32.874Z,3.67
2023-05-30T09:14:35.146Z,3.40
2023-05-30T09:16:38.017Z,3.47
2023-05-30T09:18:40.419Z,4.05
2023-05-30T09:20:43.136Z,3.42
2023-05-30T09:25:01.099Z,3.45
2023-05-30T09:27:03.975Z,3.53
2023-05-30T09:31:08.552Z,3.70
2023-05-30T09:33:10.973Z,3.78
2023-05-30T09:35:13.519Z,3.28
2023-05-30T09:37:16.052Z,3.60
2023-05-30T09:39:18.442Z,3.30
2023-05-30T09:41:21.236Z,3.75
2023-05-30T09:43:35.997Z,3.20
2023-05-30T09:45:38.204Z,3.55
2023-05-30T09:47:41.246Z,3.95
2023-05-30T09:49:44.970Z,3.45
2023-05-30T09:51:47.817Z,3.50
2023-05-30T09:54:06.243Z,3.40
2023-05-30T09:56:08.651Z,3.92
2023-05-30T09:58:19.262Z,3.20
2023-05-30T10:00:25.736Z,3.58
2023-05-30T10:02:30.151Z,3.72
2023-05-30T10:04:32.502Z,3.17
2023-05-30T10:06:38.075Z,3.25
2023-05-30T10:08:41.529Z,3.35
2023-05-30T10:10:43.760Z,3.75
2023-05-30T10:12:49.374Z,3.15
2023-05-30T10:14:51.839Z,3.05
2023-05-30T10:17:02.171Z,3.30
2023-05-30T10:19:08.728Z,3.30
2023-05-30T10:21:11.972Z,3.15
2023-05-30T10:23:17.330Z,3.63
2023-05-30T10:25:20.134Z,3.45
2023-05-30T10:29:25.797Z,3.13
2023-05-30T10:31:28.156Z,3.28
2023-05-30T10:33:55.343Z,3.08
2023-05-30T10:35:56.267Z,3.47
2023-05-30T10:37:59.551Z,3.10
2023-05-30T10:40:17.339Z,3.25
2023-05-30T10:42:33.528Z,3.25
2023-05-30T10:44:55.739Z,3.13
2023-05-30T10:47:16.128Z,3.47
2023-05-30T10:49:20.544Z,3.08
2023-05-30T10:51:22.822Z,2.63
2023-05-30T10:53:25.134Z,2.97
2023-05-30T10:55:30.126Z,3.05
2023-05-30T10:57:33.710Z,3.17
2023-05-30T10:59:35.917Z,3.40
2023-05-30T11:01:39.853Z,3.20
2023-05-30T11:03:47.060Z,3.40
2023-05-30T11:05:56.328Z,3.70
2023-05-30T11:07:59.972Z,3.08
2023-05-30T11:10:08.531Z,3.25
2023-05-30T11:12:24.920Z,2.90
2023-05-30T11:14:28.231Z,3.10
2023-05-30T11:16:31.132Z,3.05
2023-05-30T11:18:42.182Z,2.92
2023-05-30T11:20:54.358Z,3.05
2023-05-30T11:23:02.769Z,3.05
2023-05-30T11:25:26.394Z,3.28
2023-05-30T11:27:28.738Z,3.22
2023-05-30T11:29:30.892Z,3.97
2023-05-30T11:31:33.461Z,3.35
2023-05-30T11:33:37.808Z,3.35
2023-05-30T11:35:40.152Z,3.38
2023-05-30T11:37:44.367Z,3.53
2023-05-30T11:39:46.533Z,3.00
2023-05-30T11:41:49.455Z,3.40
2023-05-30T11:43:52.392Z,3.05
2023-05-30T11:45:58.018Z,3.33
2023-05-30T11:48:13.064Z,2.63
2023-05-30T11:50:15.388Z,3.30
2023-05-30T11:52:18.232Z,3.92
2023-05-30T11:54:21.336Z,3.10
2023-05-30T11:56:23.968Z,2.55
2023-05-30T11:58:27.214Z,2.92
2023-05-30T12:00:29.507Z,3.13
2023-05-30T12:02:33.765Z,3.00
2023-05-30T12:04:38.861Z,3.35
2023-05-30T12:06:41.205Z,3.30
2023-05-30T12:08:44.020Z,3.40
2023-05-30T12:10:46.680Z,3.28
2023-05-30T12:14:51.136Z,3.33
2023-05-30T12:16:59.603Z,3.63
2023-05-30T12:19:01.995Z,3.10
2023-05-30T12:21:04.659Z,3.33
2023-05-30T12:23:07.048Z,3.03
2023-05-30T12:25:13.104Z,3.30
2023-05-30T12:27:20.205Z,3.13
2023-05-30T12:29:28.598Z,3.00
2023-05-30T12:31:30.811Z,3.15
2023-05-30T12:33:33.087Z,3.10
2023-05-30T12:35:35.284Z,3.22
2023-05-30T12:37:38.063Z,3.67
2023-05-30T12:39:51.124Z,3.33
2023-05-30T12:41:56.415Z,2.60
2023-05-30T12:43:59.332Z,4.00
2023-05-30T12:46:02.360Z,3.60
2023-05-30T12:48:04.717Z,3.10
2023-05-30T12:50:07.674Z,3.08
2023-05-30T12:52:10.380Z,3.45
2023-05-30T12:54:13.431Z,3.33
2023-05-30T12:56:15.777Z,3.13
2023-05-30T12:58:18.030Z,3.55
2023-05-30T13:00:21.478Z,3.22
2023-05-30T13:02:27.915Z,3.58
2023-05-30T13:04:30.407Z,3.33
2023-05-30T13:06:33.117Z,3.47
2023-05-30T13:08:35.356Z,3.38
2023-05-30T13:10:37.565Z,3.72
2023-05-30T13:12:39.962Z,3.28
2023-05-30T13:14:43.532Z,3.22
2023-05-30T13:16:45.938Z,3.53
2023-05-30T13:18:48.348Z,3.30
2023-05-30T13:20:50.822Z,3.95
2023-05-30T13:22:53.088Z,3.83
2023-05-30T13:24:55.443Z,3.95
2023-05-30T13:26:58.338Z,3.63
2023-05-30T13:29:00.673Z,3.40
2023-05-30T13:31:04.579Z,3.50
2023-05-30T13:33:06.884Z,3.28
2023-05-30T13:35:09.425Z,3.50
2023-05-30T13:37:11.587Z,4.00
2023-05-30T13:39:14.368Z,3.67
2023-05-30T13:43:19.080Z,3.40
2023-05-30T13:45:21.881Z,4.20
2023-05-30T13:47:24.209Z,3.72
2023-05-30T13:49:33.633Z,3.45
2023-05-30T13:51:36.440Z,3.42
2023-05-30T13:56:00.769Z,3.40
2023-05-30T13:58:03.350Z,3.72
2023-05-30T14:00:05.896Z,4.10
2023-05-30T14:02:09.565Z,3.88
2023-05-30T14:04:11.845Z,3.45
2023-05-30T14:06:14.652Z,3.72
2023-05-30T14:08:17.084Z,3.55
2023-05-30T14:10:19.660Z,3.97
2023-05-30T14:12:22.075Z,3.40
2023-05-30T14:14:25.412Z,3.55
2023-05-30T14:16:28.653Z,3.60
2023-05-30T14:18:31.190Z,3.53
2023-05-30T14:20:33.484Z,3.50
2023-05-30T14:22:36.362Z,3.65
2023-05-30T14:24:39.417Z,3.67
2023-05-30T14:26:42.798Z,3.75
2023-05-30T14:28:45.052Z,3.50
2023-05-30T14:30:47.286Z,4.18
2023-05-30T14:32:49.931Z,3.72
2023-05-30T14:36:54.296Z,3.78
2023-05-30T14:38:56.479Z,3.53
2023-05-30T14:40:59.074Z,3.40
2023-05-30T14:45:03.792Z,3.85
2023-05-30T14:47:06.060Z,3.75
2023-05-30T14:49:08.286Z,3.15
2023-05-30T14:51:11.627Z,4.18
2023-05-30T14:53:13.834Z,3.60
2023-05-30T14:55:16.749Z,3.55
2023-05-30T14:57:19.053Z,3.45
2023-05-30T14:59:21.363Z,3.53
2023-05-30T15:01:43.262Z,4.10
2023-05-30T15:03:45.929Z,3.28
2023-05-30T15:05:48.402Z,4.25
2023-05-30T15:07:51.106Z,3.83
2023-05-30T15:09:53.308Z,3.55
2023-05-30T15:11:55.816Z,3.22
2023-05-30T15:13:58.015Z,3.75
2023-05-30T15:16:00.315Z,3.38
2023-05-30T15:18:02.610Z,3.40
2023-05-30T15:20:05.472Z,3.72
2023-05-30T15:22:07.761Z,3.45
2023-05-30T15:24:10.039Z,3.30
2023-05-30T15:26:12.294Z,3.35
2023-05-30T15:28:14.493Z,3.38
2023-05-30T15:30:17.499Z,3.25
2023-05-30T15:32:19.764Z,3.55
2023-05-30T15:34:22.048Z,3.00
2023-05-30T15:36:24.491Z,3.70
2023-05-30T15:38:26.698Z,3.28
2023-05-30T15:40:30.046Z,3.65
2023-05-30T15:42:32.279Z,3.92
2023-05-30T15:44:35.852Z,3.80
2023-05-30T15:46:39.461Z,4.10
2023-05-30T15:48:41.745Z,3.40
2023-05-30T15:50:43.910Z,3.58
2023-05-30T15:52:46.078Z,3.55
2023-05-30T15:54:48.270Z,3.10
2023-05-30T15:56:50.865Z,3.30
2023-05-30T15:58:53.056Z,3.63
2023-05-30T16:00:55.340Z,3.40
2023-05-30T16:02:57.677Z,4.13
2023-05-30T16:04:59.880Z,3.72
2023-05-30T16:07:02.174Z,4.03
2023-05-30T16:09:04.692Z,3.55
2023-05-30T16:11:06.898Z,3.72
2023-05-30T16:13:09.072Z,3.65
2023-05-30T16:15:12.404Z,3.30
2023-05-30T16:17:14.981Z,3.33
2023-05-30T16:19:17.627Z,3.33
2023-05-30T16:23:21.976Z,3.30
2023-05-30T16:25:24.349Z,3.70
2023-05-30T16:27:26.640Z,3.05
2023-05-30T16:29:30.971Z,3.60
2023-05-30T16:31:33.452Z,3.30
2023-05-30T16:33:37.408Z,3.40
2023-05-30T16:35:39.852Z,3.47
2023-05-30T16:37:42.047Z,3.92
2023-05-30T16:39:44.646Z,3.65
2023-05-30T16:41:46.866Z,3.38
2023-05-30T16:43:49.450Z,3.55
2023-05-30T16:45:51.705Z,3.50
2023-05-30T16:47:53.959Z,3.67
2023-05-30T16:49:56.357Z,3.50
2023-05-30T16:51:59.710Z,3.22
2023-05-30T16:54:02.001Z,3.03
2023-05-30T16:56:14.604Z,3.50
2023-05-30T16:58:19.094Z,3.28
2023-05-30T17:00:21.616Z,3.75
2023-05-30T17:04:26.188Z,3.47
2023-05-30T17:06:28.441Z,3.33
2023-05-30T17:08:30.648Z,3.10
2023-05-30T17:10:33.279Z,3.03
2023-05-30T17:14:37.549Z,3.70
2023-05-30T17:16:39.788Z,3.10
2023-05-30T17:18:42.203Z,3.53
2023-05-30T17:20:44.522Z,3.28
2023-05-30T17:22:46.786Z,3.50
2023-05-30T17:24:49.000Z,3.33
2023-05-30T17:26:51.165Z,3.00
2023-05-30T17:28:53.346Z,3.05
2023-05-30T17:30:55.574Z,6.50
2023-05-30T17:32:57.827Z,4.03
2023-05-30T17:35:00.206Z,4.22
2023-05-30T17:37:03.275Z,3.95
2023-05-30T17:39:06.456Z,4.03
2023-05-30T17:41:08.659Z,3.40
2023-05-30T17:43:11.320Z,3.65
2023-05-30T17:47:16.259Z,3.80
2023-05-30T17:49:18.433Z,3.75
2023-05-30T17:51:21.500Z,3.58
2023-05-30T17:53:23.736Z,3.65
2023-05-30T17:55:26.105Z,4.40
2023-05-30T17:57:28.413Z,3.90
2023-05-30T17:59:30.660Z,4.10
2023-05-30T18:01:33.109Z,4.40
2023-05-30T18:03:35.358Z,4.05
2023-05-30T18:05:38.384Z,4.07
2023-05-30T18:07:40.698Z,4.00
2023-05-30T18:09:42.899Z,4.00
2023-05-30T18:11:45.099Z,4.07
2023-05-30T18:13:47.302Z,4.75
2023-05-30T18:15:49.618Z,4.10
2023-05-30T18:17:52.612Z,4.70
2023-05-30T18:19:54.829Z,4.32
2023-05-30T18:21:56.994Z,3.92
2023-05-30T18:23:59.175Z,4.03
2023-05-30T18:26:01.761Z,4.07
2023-05-30T18:28:06.974Z,3.92
2023-05-30T18:30:09.322Z,3.35
2023-05-30T18:32:11.669Z,3.55
2023-05-30T18:34:14.071Z,3.65
2023-05-30T18:36:16.300Z,3.92
2023-05-30T18:38:18.553Z,4.28
2023-05-30T18:40:20.827Z,3.95
2023-05-30T18:42:23.000Z,3.70
2023-05-30T18:44:25.172Z,3.90
2023-05-30T18:46:27.460Z,3.95
2023-05-30T18:48:43.313Z,4.30
2023-05-30T18:50:48.117Z,4.22
2023-05-30T18:52:50.335Z,4.47
2023-05-30T18:54:52.773Z,5.82
2023-05-30T18:56:54.966Z,5.38
2023-05-30T18:58:57.250Z,4.60
2023-05-30T19:00:59.797Z,3.92
2023-05-30T19:03:02.402Z,3.85
2023-05-30T19:05:04.766Z,4.05
2023-05-30T19:07:07.066Z,3.53
2023-05-30T19:09:09.352Z,4.10
2023-05-30T19:11:11.720Z,4.38
2023-05-30T19:13:14.068Z,3.55
2023-05-30T19:15:16.325Z,3.85
2023-05-30T19:17:18.562Z,3.58
2023-05-30T19:19:20.845Z,4.43
2023-05-30T19:21:23.095Z,3.50
2023-05-30T19:23:25.425Z,4.20
2023-05-30T19:25:27.740Z,3.67
2023-05-30T19:27:29.966Z,3.90
2023-05-30T19:29:32.245Z,4.00
2023-05-30T19:31:34.547Z,4.10
2023-05-30T19:33:36.984Z,3.88
2023-05-30T19:35:39.229Z,4.22
2023-05-30T19:37:41.801Z,3.90
2023-05-30T19:39:44.198Z,4.30
2023-05-30T19:41:46.394Z,3.67
2023-05-30T19:43:48.815Z,4.25
2023-05-30T19:45:51.164Z,4.30
2023-05-30T19:47:54.828Z,3.72
2023-05-30T19:49:57.268Z,4.32
2023-05-30T19:51:59.485Z,4.20
2023-05-30T19:54:01.682Z,3.78
2023-05-30T19:56:04.252Z,4.43
2023-05-30T19:58:07.026Z,4.22
2023-05-30T20:02:13.776Z,4.07
2023-05-30T20:04:16.109Z,4.00
2023-05-30T20:06:18.591Z,4.40
2023-05-30T20:08:20.995Z,4.18
2023-05-30T20:10:23.344Z,4.20
2023-05-30T20:12:25.596Z,4.68
2023-05-30T20:14:27.789Z,4.15
2023-05-30T20:16:29.999Z,4.53
2023-05-30T20:18:32.342Z,3.72
2023-05-30T20:20:35.124Z,3.97
2023-05-30T20:24:39.509Z,4.57
2023-05-30T20:26:41.722Z,4.28
2023-05-30T20:28:43.974Z,4.45
2023-05-30T20:30:46.415Z,4.30
2023-05-30T20:32:48.650Z,3.90
2023-05-30T20:34:51.799Z,4.85
2023-05-30T20:36:54.004Z,4.38
2023-05-30T20:38:56.213Z,5.25
2023-05-30T20:40:58.613Z,4.20
2023-05-30T20:43:01.011Z,4.43
2023-05-30T20:45:03.641Z,4.03
2023-05-30T20:49:08.143Z,4.32
2023-05-30T20:51:10.453Z,4.95
2023-05-30T20:53:15.574Z,4.22
2023-05-30T20:55:17.828Z,4.60
2023-05-30T20:57:20.781Z,4.50
2023-05-30T20:59:23.287Z,5.47
2023-05-30T21:01:26.667Z,4.72
2023-05-30T21:03:29.141Z,4.75
2023-05-30T21:05:31.426Z,4.80
2023-05-30T21:07:33.764Z,4.90
2023-05-30T21:09:35.922Z,5.07
2023-05-30T21:11:38.104Z,5.13
2023-05-30T21:13:41.923Z,4.55
2023-05-30T21:15:44.429Z,4.57
2023-05-30T21:17:46.664Z,5.07
2023-05-30T21:19:48.889Z,4.45
2023-05-30T21:21:51.087Z,4.75
2023-05-30T21:23:53.909Z,5.13
2023-05-30T21:27:58.511Z,4.60
2023-05-30T21:30:00.821Z,4.32
2023-05-30T21:32:03.283Z,4.93
2023-05-30T21:34:06.550Z,5.15
2023-05-30T21:36:08.892Z,4.50
2023-05-30T21:38:11.065Z,4.93
2023-05-30T21:40:13.338Z,4.38
2023-05-30T21:42:15.568Z,5.22
2023-05-30T21:44:17.872Z,5.22
2023-05-30T21:46:20.035Z,5.07
2023-05-30T21:48:22.293Z,5.22
2023-05-30T21:50:24.566Z,5.13
2023-05-30T21:52:27.523Z,4.90
2023-05-30T21:54:37.158Z,5.05
2023-05-30T21:56:39.408Z,5.88
2023-05-30T21:58:41.643Z,5.78
2023-05-30T22:00:45.025Z,5.32
2023-05-30T22:02:48.083Z,4.93
2023-05-30T22:04:50.530Z,5.43
2023-05-30T22:06:52.804Z,5.38
2023-05-30T22:08:54.949Z,4.60
2023-05-30T22:10:57.204Z,4.50
2023-05-30T22:12:59.440Z,5.72
2023-05-30T22:15:02.707Z,5.55
2023-05-30T22:17:05.072Z,5.20
2023-05-30T22:19:07.367Z,6.13
2023-05-30T22:21:09.603Z,5.60
2023-05-30T22:23:11.791Z,5.57
2023-05-30T22:25:14.019Z,6.15
2023-05-30T22:27:16.495Z,5.88
2023-05-30T22:29:18.693Z,5.82
2023-05-30T22:31:21.140Z,4.82
2023-05-30T22:33:23.361Z,5.75
2023-05-30T22:35:25.929Z,5.35
2023-05-30T22:37:28.160Z,6.30
2023-05-30T22:39:30.807Z,5.80
2023-05-30T22:43:35.125Z,5.75
2023-05-30T22:45:37.289Z,5.50
2023-05-30T22:47:39.534Z,5.82
2023-05-30T22:49:41.821Z,5.65
2023-05-30T22:51:44.038Z,5.40
2023-05-30T22:53:46.395Z,5.47
2023-05-30T22:55:48.750Z,5.47
2023-05-30T22:57:50.936Z,5.55
2023-05-30T22:59:53.207Z,5.70
2023-05-30T23:01:57.809Z,5.63
2023-05-30T23:04:00.065Z,4.82
2023-05-30T23:06:04.200Z,4.95
2023-05-30T23:08:07.545Z,5.60
2023-05-30T23:10:10.030Z,5.93
2023-05-30T23:12:12.525Z,4.75
2023-05-30T23:14:14.788Z,5.00
2023-05-30T23:16:17.453Z,4.95
2023-05-30T23:20:21.853Z,5.32
2023-05-30T23:22:24.160Z,5.22
2023-05-30T23:24:26.535Z,5.15
2023-05-30T23:26:28.770Z,4.82
2023-05-30T23:28:31.067Z,4.88
2023-05-30T23:30:33.328Z,4.72
2023-05-30T23:32:35.558Z,4.55
2023-05-30T23:34:37.797Z,4.90
2023-05-30T23:36:40.394Z,5.45
2023-05-30T23:38:44.063Z,4.82
2023-05-30T23:40:47.040Z,4.90
2023-05-30T23:42:49.625Z,4.80
2023-05-30T23:44:51.807Z,4.65
2023-05-30T23:46:54.235Z,5.50
2023-05-30T23:48:56.485Z,4.65
2023-05-30T23:50:58.711Z,4.72
2023-05-30T23:53:01.035Z,4.55
2023-05-30T23:55:03.284Z,4.63
2023-05-30T23:57:06.177Z,4.30
2023-05-30T23:59:08.385Z,4.00
